Home > Products > Valid Products > TAF

000
FTPQ31 PGUM 181100
TAFPQ
TAF
PGUM 181129Z 1812/1918 06009KT P6SM VCSH FEW025 SCT060
     FM182300 08012G22KT P6SM VCSH FEW025 SCT060=



000
FTPQ31 PGUM 181100
TAFPQ
TAF
PGUM 181129Z 1812/1918 06009KT P6SM VCSH FEW025 SCT060
     FM182300 08012G22KT P6SM VCSH FEW025 SCT060=



000
FTPQ31 PGUM 180500
TAFPQ
TAF
PGUM 180520Z 1806/1912 06012G20KT P6SM VCSH SCT020 SCT050
     FM180800 06009KT P6SM VCSH FEW025 SCT060=



000
FTPQ31 PGUM 180500
TAFPQ
TAF
PGUM 180520Z 1806/1912 06012G20KT P6SM VCSH SCT020 SCT050
     FM180800 06009KT P6SM VCSH FEW025 SCT060=



000
FTPQ31 PGUM 172300
TAFPQ
TAF
PGUM 172320Z 1800/1906 06012G22KT P6SM VCSH FEW020 SCT050
     FM180700 06009KT P6SM VCSH FEW025 SCT060=



000
FTPQ31 PGUM 172300
TAFPQ
TAF
PGUM 172320Z 1800/1906 06012G22KT P6SM VCSH FEW020 SCT050
     FM180700 06009KT P6SM VCSH FEW025 SCT060=



000
FTPQ31 PGUM 171700
TAFPQ
TAF
PGUM 171720Z 1718/1824 06009KT P6SM VCSH FEW025 SCT060
     FM172300 06012G22KT P6SM VCSH FEW020 SCT050=



000
FTPQ31 PGUM 171700
TAFPQ
TAF
PGUM 171720Z 1718/1824 06009KT P6SM VCSH FEW025 SCT060
     FM172300 06012G22KT P6SM VCSH FEW020 SCT050=



000
FTPQ31 PGUM 171100
TAFPQ
TAF
PGUM 171120Z 1712/1818 07009KT P6SM FEW025 FEW060
     FM172300 07012G22KT P6SM VCSH FEW020 SCT050=



000
FTPQ31 PGUM 171100
TAFPQ
TAF
PGUM 171120Z 1712/1818 07009KT P6SM FEW025 FEW060
     FM172300 07012G22KT P6SM VCSH FEW020 SCT050=



000
FTPQ31 PGUM 170500
TAFPQ
TAF
PGUM 170528Z 1706/1812 08009G19KT P6SM VCSH SCT020
     FM170800 08011KT P6SM VCSH SCT020=



000
FTPQ31 PGUM 170500
TAFPQ
TAF
PGUM 170528Z 1706/1812 08009G19KT P6SM VCSH SCT020
     FM170800 08011KT P6SM VCSH SCT020=



000
FTPQ31 PGUM 162300
TAFPQ
TAF
PGUM 162339Z 1700/1806 08009G19KT P6SM VCSH FEW020
     FM170800 08011KT P6SM VCSH FEW020=



000
FTPQ31 PGUM 162300
TAFPQ
TAF
PGUM 162339Z 1700/1806 08009G19KT P6SM VCSH FEW020
     FM170800 08011KT P6SM VCSH FEW020=



000
FTPQ31 PGUM 161700
TAFPQ
TAF
PGUM 161722Z 1618/1724 07011KT P6SM VCSH FEW020
     FM162200 08011G22KT P6SM VCSH FEW022 SCT040=



000
FTPQ31 PGUM 161700
TAFPQ
TAF
PGUM 161722Z 1618/1724 07011KT P6SM VCSH FEW020
     FM162200 08011G22KT P6SM VCSH FEW022 SCT040=



000
FTPQ31 PGUM 161100
TAFPQ
TAF
PGUM 161120Z 1612/1718 07011KT P6SM VCSH FEW020
     FM162200 08011G20KT P6SM VCSH FEW022 SCT040=



000
FTPQ31 PGUM 161100
TAFPQ
TAF
PGUM 161120Z 1612/1718 07011KT P6SM VCSH FEW020
     FM162200 08011G20KT P6SM VCSH FEW022 SCT040=



000
FTPQ31 PGUM 160500
TAFPQ
TAF
PGUM 160520Z 1606/1712 08015G25KT P6SM VCSH FEW022 SCT040
     FM160900 07011KT P6SM VCSH FEW020=



000
FTPQ31 PGUM 160500
TAFPQ
TAF
PGUM 160520Z 1606/1712 08015G25KT P6SM VCSH FEW022 SCT040
     FM160900 07011KT P6SM VCSH FEW020=



000
FTPQ31 PGUM 152300
TAFPQ
TAF
PGUM 152332Z 1600/1706 08015G25KT P6SM VCSH FEW022 SCT040
     FM160900 07012KT P6SM VCSH FEW020=



000
FTPQ31 PGUM 152300
TAFPQ
TAF
PGUM 152332Z 1600/1706 08015G25KT P6SM VCSH FEW022 SCT040
     FM160900 07012KT P6SM VCSH FEW020=



000
FTPQ31 PGUM 151700
TAFPQ
TAF
PGUM 151720Z 1518/1624 08012G20KT P6SM VCSH SCT035
     FM152300 07015G25KT P6SM VCSH FEW022
     FM160900 06012KT P6SM VCSH FEW020=



000
FTPQ31 PGUM 151700
TAFPQ
TAF
PGUM 151720Z 1518/1624 08012G20KT P6SM VCSH SCT035
     FM152300 07015G25KT P6SM VCSH FEW022
     FM160900 06012KT P6SM VCSH FEW020=



    US Dept of Commerce
    National Oceanic and Atmospheric Administration
    National Weather Service
    1325 East West Highway
    Silver Spring, MD 20910
    Page Author: NWS Internet Services Team
Disclaimer
Information Quality
Credits
Glossary
Privacy Policy
Freedom of Information Act (FOIA)
About Us
Career Opportunities